sensor_id;sensor_type;location;lat;lon;timestamp;pressure;altitude;pressure_sealevel;temperature;humidity
72925;BME280;61070;50.794;7.054;2022-12-11T00:00:33;100457.50;;;0.09;95.03
72925;BME280;61070;50.794;7.054;2022-12-11T00:02:59;100464.56;;;0.13;95.44
72925;BME280;61070;50.794;7.054;2022-12-11T00:05:24;100455.09;;;0.17;95.81
72925;BME280;61070;50.794;7.054;2022-12-11T00:07:49;100461.19;;;0.17;96.45
72925;BME280;61070;50.794;7.054;2022-12-11T00:10:15;100465.72;;;0.24;97.08
72925;BME280;61070;50.794;7.054;2022-12-11T00:12:40;100460.50;;;0.24;96.74
72925;BME280;61070;50.794;7.054;2022-12-11T00:15:06;100461.41;;;0.26;97.58
72925;BME280;61070;50.794;7.054;2022-12-11T00:17:31;100456.19;;;0.25;97.78
72925;BME280;61070;50.794;7.054;2022-12-11T00:19:56;100456.94;;;0.22;98.50
72925;BME280;61070;50.794;7.054;2022-12-11T00:22:22;100461.50;;;0.29;98.40
72925;BME280;61070;50.794;7.054;2022-12-11T00:24:47;100458.78;;;0.25;98.00
72925;BME280;61070;50.794;7.054;2022-12-11T00:27:12;100452.78;;;0.29;98.57
72925;BME280;61070;50.794;7.054;2022-12-11T00:29:38;100455.41;;;0.29;98.78
72925;BME280;61070;50.794;7.054;2022-12-11T00:32:03;100460.66;;;0.31;98.87
72925;BME280;61070;50.794;7.054;2022-12-11T00:34:28;100456.16;;;0.23;99.47
72925;BME280;61070;50.794;7.054;2022-12-11T00:36:54;100454.34;;;0.22;98.97
72925;BME280;61070;50.794;7.054;2022-12-11T00:39:19;100450.75;;;0.17;99.87
72925;BME280;61070;50.794;7.054;2022-12-11T00:41:44;100451.50;;;0.12;100.00
72925;BME280;61070;50.794;7.054;2022-12-11T00:44:10;100433.28;;;0.12;100.00
72925;BME280;61070;50.794;7.054;2022-12-11T00:46:35;100450.59;;;0.11;100.00
72925;BME280;61070;50.794;7.054;2022-12-11T00:49:00;100447.22;;;0.14;100.00
72925;BME280;61070;50.794;7.054;2022-12-11T00:51:25;100448.16;;;0.17;100.00
72925;BME280;61070;50.794;7.054;2022-12-11T00:53:51;100450.72;;;0.16;100.00
72925;BME280;61070;50.794;7.054;2022-12-11T00:56:21;100454.34;;;0.22;100.00
72925;BME280;61070;50.794;7.054;2022-12-11T00:58:47;100449.25;;;0.25;100.00
72925;BME280;61070;50.794;7.054;2022-12-11T01:01:19;100449.91;;;0.18;100.00
72925;BME280;61070;50.794;7.054;2022-12-11T01:03:45;100452.50;;;0.17;100.00
72925;BME280;61070;50.794;7.054;2022-12-11T01:06:15;100470.16;;;0.28;100.00
72925;BME280;61070;50.794;7.054;2022-12-11T01:08:42;100468.28;;;0.23;100.00
72925;BME280;61070;50.794;7.054;2022-12-11T01:11:09;100457.91;;;0.24;100.00
72925;BME280;61070;50.794;7.054;2022-12-11T01:13:35;100441.91;;;0.11;100.00
72925;BME280;61070;50.794;7.054;2022-12-11T01:16:12;100447.25;;;0.15;100.00
72925;BME280;61070;50.794;7.054;2022-12-11T01:18:38;100450.72;;;0.16;100.00
72925;BME280;61070;50.794;7.054;2022-12-11T01:21:08;100443.78;;;0.16;100.00
72925;BME280;61070;50.794;7.054;2022-12-11T01:23:34;100447.31;;;0.18;100.00
72925;BME280;61070;50.794;7.054;2022-12-11T01:26:12;100452.13;;;0.03;100.00
72925;BME280;61070;50.794;7.054;2022-12-11T01:28:37;100453.94;;;0.06;100.00
72925;BME280;61070;50.794;7.054;2022-12-11T01:31:09;100444.59;;;0.14;100.00
72925;BME280;61070;50.794;7.054;2022-12-11T01:33:35;100442.84;;;0.13;100.00
72925;BME280;61070;50.794;7.054;2022-12-11T01:36:00;100431.63;;;0.15;100.00
72925;BME280;61070;50.794;7.054;2022-12-11T01:38:25;100438.66;;;0.19;100.00
72925;BME280;61070;50.794;7.054;2022-12-11T01:40:51;100439.38;;;0.12;100.00
72925;BME280;61070;50.794;7.054;2022-12-11T01:43:16;100434.97;;;0.11;100.00
72925;BME280;61070;50.794;7.054;2022-12-11T01:45:43;100435.16;;;0.19;100.00
72925;BME280;61070;50.794;7.054;2022-12-11T01:48:12;100428.97;;;0.14;100.00
72925;BME280;61070;50.794;7.054;2022-12-11T01:50:51;100440.34;;;0.17;100.00
72925;BME280;61070;50.794;7.054;2022-12-11T01:53:28;100438.66;;;0.19;100.00
72925;BME280;61070;50.794;7.054;2022-12-11T01:55:56;100432.56;;;0.19;100.00
72925;BME280;61070;50.794;7.054;2022-12-11T01:58:25;100432.38;;;0.11;100.00
72925;BME280;61070;50.794;7.054;2022-12-11T02:00:52;100430.00;;;0.20;100.00
72925;BME280;61070;50.794;7.054;2022-12-11T02:03:18;100435.06;;;0.14;100.00
72925;BME280;61070;50.794;7.054;2022-12-11T02:05:43;100445.59;;;0.19;100.00
72925;BME280;61070;50.794;7.054;2022-12-11T02:08:09;100428.97;;;0.14;100.00
72925;BME280;61070;50.794;7.054;2022-12-11T02:10:47;100429.94;;;0.17;100.00
72925;BME280;61070;50.794;7.054;2022-12-11T02:13:30;100428.22;;;0.18;100.00
72925;BME280;61070;50.794;7.054;2022-12-11T02:16:06;100423.09;;;0.22;100.00
72925;BME280;61070;50.794;7.054;2022-12-11T02:18:41;100419.50;;;0.17;100.00
72925;BME280;61070;50.794;7.054;2022-12-11T02:21:33;100421.44;;;0.24;100.00
72925;BME280;61070;50.794;7.054;2022-12-11T02:27:26;100415.41;;;0.27;100.00
72925;BME280;61070;50.794;7.054;2022-12-11T02:30:00;100423.22;;;0.27;100.00
72925;BME280;61070;50.794;7.054;2022-12-11T02:32:57;100411.09;;;0.27;100.00
72925;BME280;61070;50.794;7.054;2022-12-11T02:35:39;100410.19;;;0.25;100.00
72925;BME280;61070;50.794;7.054;2022-12-11T02:38:14;100406.72;;;0.26;100.00
72925;BME280;61070;50.794;7.054;2022-12-11T02:40:41;100414.59;;;0.29;99.98
72925;BME280;61070;50.794;7.054;2022-12-11T02:43:10;100418.81;;;0.23;99.80
72925;BME280;61070;50.794;7.054;2022-12-11T02:45:39;100416.31;;;0.27;99.69
72925;BME280;61070;50.794;7.054;2022-12-11T02:48:07;100418.06;;;0.28;99.35
72925;BME280;61070;50.794;7.054;2022-12-11T02:50:37;100406.72;;;0.26;100.00
72925;BME280;61070;50.794;7.054;2022-12-11T02:53:05;100414.75;;;0.34;99.49
72925;BME280;61070;50.794;7.054;2022-12-11T02:55:34;100413.22;;;0.44;98.58
72925;BME280;61070;50.794;7.054;2022-12-11T02:58:05;100410.25;;;0.28;98.57
72925;BME280;61070;50.794;7.054;2022-12-11T03:00:33;100404.25;;;0.33;98.62
72925;BME280;61070;50.794;7.054;2022-12-11T03:02:58;100408.56;;;0.31;98.57
72925;BME280;61070;50.794;7.054;2022-12-11T03:05:24;100412.03;;;0.31;99.02
72925;BME280;61070;50.794;7.054;2022-12-11T03:07:51;100404.97;;;0.25;99.51
72925;BME280;61070;50.794;7.054;2022-12-11T03:10:17;100406.72;;;0.26;99.31
72925;BME280;61070;50.794;7.054;2022-12-11T03:12:47;100405.94;;;0.31;99.22
72925;BME280;61070;50.794;7.054;2022-12-11T03:15:16;100410.19;;;0.25;98.63
72925;BME280;61070;50.794;7.054;2022-12-11T03:17:55;100401.47;;;0.25;99.31
72925;BME280;61070;50.794;7.054;2022-12-11T03:20:40;100400.59;;;0.24;99.08
72925;BME280;61070;50.794;7.054;2022-12-11T03:23:23;100405.94;;;0.31;98.39
72925;BME280;61070;50.794;7.054;2022-12-11T03:25:56;100409.47;;;0.33;98.42
72925;BME280;61070;50.794;7.054;2022-12-11T03:28:55;100411.13;;;0.29;98.65
72925;BME280;61070;50.794;7.054;2022-12-11T03:31:28;100404.06;;;0.23;98.73
72925;BME280;61070;50.794;7.054;2022-12-11T03:33:58;100400.69;;;0.27;98.09
72925;BME280;61070;50.794;7.054;2022-12-11T03:36:33;100406.59;;;0.22;98.77
72925;BME280;61070;50.794;7.054;2022-12-11T03:39:09;100399.72;;;0.24;98.74
72925;BME280;61070;50.794;7.054;2022-12-11T03:41:38;100406.56;;;0.20;99.26
72925;BME280;61070;50.794;7.054;2022-12-11T03:44:05;100410.00;;;0.19;99.31
72925;BME280;61070;50.794;7.054;2022-12-11T03:46:34;100417.06;;;0.23;99.09
72925;BME280;61070;50.794;7.054;2022-12-11T03:49:05;100419.81;;;0.29;98.32
72925;BME280;61070;50.794;7.054;2022-12-11T03:51:32;100418.13;;;0.32;98.06
72925;BME280;61070;50.794;7.054;2022-12-11T03:53:58;100411.88;;;0.23;98.74
72925;BME280;61070;50.794;7.054;2022-12-11T03:56:25;100412.84;;;0.28;99.11
72925;BME280;61070;50.794;7.054;2022-12-11T03:58:52;100415.44;;;0.28;99.03
72925;BME280;61070;50.794;7.054;2022-12-11T04:01:18;100407.81;;;0.35;98.36
72925;BME280;61070;50.794;7.054;2022-12-11T04:03:43;100410.91;;;0.21;98.95
72925;BME280;61070;50.794;7.054;2022-12-11T04:06:08;100401.38;;;0.22;99.23
72925;BME280;61070;50.794;7.054;2022-12-11T04:08:34;100398.03;;;0.26;99.45
72925;BME280;61070;50.794;7.054;2022-12-11T04:11:02;100395.22;;;0.18;98.86
72925;BME280;61070;50.794;7.054;2022-12-11T04:13:46;100397.88;;;0.20;98.27
72925;BME280;61070;50.794;7.054;2022-12-11T04:16:31;100391.41;;;0.39;98.39
72925;BME280;61070;50.794;7.054;2022-12-11T04:18:57;100385.91;;;0.28;98.42
72925;BME280;61070;50.794;7.054;2022-12-11T04:21:41;100383.88;;;0.15;98.53
72925;BME280;61070;50.794;7.054;2022-12-11T04:24:25;100390.00;;;0.17;99.20
72925;BME280;61070;50.794;7.054;2022-12-11T04:26:50;100382.16;;;0.15;98.67
72925;BME280;61070;50.794;7.054;2022-12-11T04:29:15;100384.75;;;0.15;98.71
72925;BME280;61070;50.794;7.054;2022-12-11T04:31:40;100393.53;;;0.20;99.00
72925;BME280;61070;50.794;7.054;2022-12-11T04:34:06;100388.44;;;0.23;99.03
72925;BME280;61070;50.794;7.054;2022-12-11T04:36:31;100388.28;;;0.19;98.99
72925;BME280;61070;50.794;7.054;2022-12-11T04:38:56;100386.56;;;0.19;99.00
72925;BME280;61070;50.794;7.054;2022-12-11T04:41:22;100395.41;;;0.24;98.80
72925;BME280;61070;50.794;7.054;2022-12-11T04:43:47;100379.78;;;0.24;99.13
72925;BME280;61070;50.794;7.054;2022-12-11T04:46:15;100385.97;;;0.29;99.14
72925;BME280;61070;50.794;7.054;2022-12-11T04:48:41;100384.22;;;0.30;98.97
72925;BME280;61070;50.794;7.054;2022-12-11T04:51:07;100380.75;;;0.29;98.94
72925;BME280;61070;50.794;7.054;2022-12-11T04:53:34;100388.63;;;0.33;99.18
72925;BME280;61070;50.794;7.054;2022-12-11T04:55:59;100383.47;;;0.34;99.11
72925;BME280;61070;50.794;7.054;2022-12-11T04:58:26;100382.81;;;0.44;98.37
72925;BME280;61070;50.794;7.054;2022-12-11T05:00:51;100386.13;;;0.36;98.40
72925;BME280;61070;50.794;7.054;2022-12-11T05:03:17;100377.28;;;0.31;99.37
72925;BME280;61070;50.794;7.054;2022-12-11T05:05:49;100376.59;;;0.38;99.79
72925;BME280;61070;50.794;7.054;2022-12-11T05:08:16;100385.19;;;0.34;99.87
72925;BME280;61070;50.794;7.054;2022-12-11T05:10:41;100375.56;;;0.31;99.44
72925;BME280;61070;50.794;7.054;2022-12-11T05:13:07;100383.41;;;0.33;99.38
72925;BME280;61070;50.794;7.054;2022-12-11T05:15:32;100367.72;;;0.29;99.22
72925;BME280;61070;50.794;7.054;2022-12-11T05:17:57;100370.53;;;0.37;99.33
72925;BME280;61070;50.794;7.054;2022-12-11T05:20:23;100369.47;;;0.31;98.74
72925;BME280;61070;50.794;7.054;2022-12-11T05:22:48;100360.75;;;0.28;98.76
72925;BME280;61070;50.794;7.054;2022-12-11T05:25:13;100362.69;;;0.36;98.94
72925;BME280;61070;50.794;7.054;2022-12-11T05:27:38;100365.31;;;0.37;98.58
72925;BME280;61070;50.794;7.054;2022-12-11T05:30:04;100362.75;;;0.39;98.53
72925;BME280;61070;50.794;7.054;2022-12-11T05:32:30;100357.47;;;0.36;98.47
72925;BME280;61070;50.794;7.054;2022-12-11T05:34:55;100360.97;;;0.38;98.43
72925;BME280;61070;50.794;7.054;2022-12-11T05:37:20;100362.75;;;0.39;98.08
72925;BME280;61070;50.794;7.054;2022-12-11T05:39:45;100354.91;;;0.37;98.19
72925;BME280;61070;50.794;7.054;2022-12-11T05:42:11;100356.69;;;0.40;97.97
72925;BME280;61070;50.794;7.054;2022-12-11T05:44:36;100348.06;;;0.42;98.18
72925;BME280;61070;50.794;7.054;2022-12-11T05:47:01;100354.22;;;0.46;98.19
72925;BME280;61070;50.794;7.054;2022-12-11T05:49:27;100350.78;;;0.47;98.18
72925;BME280;61070;50.794;7.054;2022-12-11T05:51:52;100356.00;;;0.47;98.91
72925;BME280;61070;50.794;7.054;2022-12-11T05:54:17;100367.34;;;0.50;98.64
72925;BME280;61070;50.794;7.054;2022-12-11T05:56:42;100360.41;;;0.51;97.92
72925;BME280;61070;50.794;7.054;2022-12-11T05:59:08;100363.19;;;0.57;98.38
72925;BME280;61070;50.794;7.054;2022-12-11T06:01:40;100366.47;;;0.50;98.00
72925;BME280;61070;50.794;7.054;2022-12-11T06:04:07;100363.97;;;0.54;98.32
72925;BME280;61070;50.794;7.054;2022-12-11T06:06:33;100362.34;;;0.60;97.67
72925;BME280;61070;50.794;7.054;2022-12-11T06:08:59;100358.78;;;0.56;98.09
72925;BME280;61070;50.794;7.054;2022-12-11T06:11:26;100361.38;;;0.56;98.54
72925;BME280;61070;50.794;7.054;2022-12-11T06:13:52;100357.88;;;0.54;98.29
72925;BME280;61070;50.794;7.054;2022-12-11T06:16:19;100352.59;;;0.51;98.06
72925;BME280;61070;50.794;7.054;2022-12-11T06:18:44;100356.13;;;0.53;98.49
72925;BME280;61070;50.794;7.054;2022-12-11T06:23:39;100347.38;;;0.51;99.14
72925;BME280;61070;50.794;7.054;2022-12-11T06:26:05;100344.69;;;0.46;98.73
72925;BME280;61070;50.794;7.054;2022-12-11T06:28:31;100348.94;;;0.43;99.20
72925;BME280;61070;50.794;7.054;2022-12-11T06:30:59;100354.28;;;0.49;99.48
72925;BME280;61070;50.794;7.054;2022-12-11T06:33:25;100349.06;;;0.47;98.34
72925;BME280;61070;50.794;7.054;2022-12-11T06:35:50;100348.19;;;0.47;99.05
72925;BME280;61070;50.794;7.054;2022-12-11T06:38:16;100347.09;;;0.39;98.92
72925;BME280;61070;50.794;7.054;2022-12-11T06:40:41;100349.69;;;0.37;98.75
72925;BME280;61070;50.794;7.054;2022-12-11T06:43:07;100348.84;;;0.38;98.83
72925;BME280;61070;50.794;7.054;2022-12-11T06:45:32;100347.00;;;0.34;98.06
72925;BME280;61070;50.794;7.054;2022-12-11T06:47:57;100345.34;;;0.38;97.95
72925;BME280;61070;50.794;7.054;2022-12-11T06:50:23;100344.47;;;0.37;98.03
72925;BME280;61070;50.794;7.054;2022-12-11T06:52:48;100352.50;;;0.46;98.27
72925;BME280;61070;50.794;7.054;2022-12-11T06:55:13;100349.09;;;0.49;97.74
72925;BME280;61070;50.794;7.054;2022-12-11T06:57:38;100352.44;;;0.45;96.92
72925;BME280;61070;50.794;7.054;2022-12-11T07:00:04;100351.56;;;0.44;96.97
72925;BME280;61070;50.794;7.054;2022-12-11T07:02:30;100346.41;;;0.46;96.00
72925;BME280;61070;50.794;7.054;2022-12-11T07:04:55;100354.06;;;0.40;97.39
72925;BME280;61070;50.794;7.054;2022-12-11T07:07:21;100348.81;;;0.37;97.78
72925;BME280;61070;50.794;7.054;2022-12-11T07:09:46;100357.50;;;0.37;98.19
72925;BME280;61070;50.794;7.054;2022-12-11T07:12:11;100362.88;;;0.45;97.84
72925;BME280;61070;50.794;7.054;2022-12-11T07:14:37;100361.09;;;0.44;97.50
72925;BME280;61070;50.794;7.054;2022-12-11T07:17:02;100358.69;;;0.51;97.16
72925;BME280;61070;50.794;7.054;2022-12-11T07:19:27;100363.75;;;0.45;97.46
72925;BME280;61070;50.794;7.054;2022-12-11T07:21:53;100371.50;;;0.42;97.44
72925;BME280;61070;50.794;7.054;2022-12-11T07:24:18;100365.41;;;0.42;98.22
72925;BME280;61070;50.794;7.054;2022-12-11T07:26:44;100367.25;;;0.46;98.15
72925;BME280;61070;50.794;7.054;2022-12-11T07:29:09;100367.25;;;0.46;97.11
72925;BME280;61070;50.794;7.054;2022-12-11T07:31:35;100368.91;;;0.44;97.40
72925;BME280;61070;50.794;7.054;2022-12-11T07:34:04;100363.81;;;0.47;98.19
72925;BME280;61070;50.794;7.054;2022-12-11T07:36:30;100353.31;;;0.45;98.19
72925;BME280;61070;50.794;7.054;2022-12-11T07:38:57;100369.06;;;0.50;98.04
72925;BME280;61070;50.794;7.054;2022-12-11T07:41:23;100362.97;;;0.48;98.02
72925;BME280;61070;50.794;7.054;2022-12-11T07:43:51;100363.91;;;0.51;98.27
72925;BME280;61070;50.794;7.054;2022-12-11T07:46:21;100364.00;;;0.56;98.20
72925;BME280;61070;50.794;7.054;2022-12-11T07:48:48;100363.25;;;0.62;98.08
72925;BME280;61070;50.794;7.054;2022-12-11T07:51:19;100363.19;;;0.57;98.30
72925;BME280;61070;50.794;7.054;2022-12-11T07:53:48;100361.47;;;0.59;98.94
72925;BME280;61070;50.794;7.054;2022-12-11T07:56:15;100369.31;;;0.61;98.90
72925;BME280;61070;50.794;7.054;2022-12-11T07:58:41;100365.88;;;0.62;98.60
72925;BME280;61070;50.794;7.054;2022-12-11T08:01:15;100366.69;;;0.59;98.66
72925;BME280;61070;50.794;7.054;2022-12-11T08:03:42;100367.59;;;0.61;98.81
72925;BME280;61070;50.794;7.054;2022-12-11T08:06:08;100367.69;;;0.66;99.21
72925;BME280;61070;50.794;7.054;2022-12-11T08:08:34;100367.41;;;0.53;98.85
72925;BME280;61070;50.794;7.054;2022-12-11T08:11:03;100367.25;;;0.46;98.74
72925;BME280;61070;50.794;7.054;2022-12-11T08:13:29;100365.59;;;0.49;99.03
72925;BME280;61070;50.794;7.054;2022-12-11T08:15:55;100367.34;;;0.50;98.80
72925;BME280;61070;50.794;7.054;2022-12-11T08:18:20;100359.38;;;0.44;99.19
72925;BME280;61070;50.794;7.054;2022-12-11T08:20:45;100370.03;;;0.53;99.61
72925;BME280;61070;50.794;7.054;2022-12-11T08:23:11;100350.06;;;0.54;99.08
72925;BME280;61070;50.794;7.054;2022-12-11T08:25:36;100350.19;;;0.58;98.59
72925;BME280;61070;50.794;7.054;2022-12-11T08:28:02;100351.97;;;0.61;98.69
72925;BME280;61070;50.794;7.054;2022-12-11T08:30:27;100351.19;;;0.67;98.17
72925;BME280;61070;50.794;7.054;2022-12-11T08:32:52;100350.28;;;0.63;97.95
72925;BME280;61070;50.794;7.054;2022-12-11T08:35:18;100351.13;;;0.62;98.05
72925;BME280;61070;50.794;7.054;2022-12-11T08:37:43;100367.63;;;0.63;98.20
72925;BME280;61070;50.794;7.054;2022-12-11T08:40:09;100358.09;;;0.63;98.49
72925;BME280;61070;50.794;7.054;2022-12-11T08:42:35;100359.78;;;0.61;98.59
72925;BME280;61070;50.794;7.054;2022-12-11T08:45:00;100357.28;;;0.67;98.57
72925;BME280;61070;50.794;7.054;2022-12-11T08:47:26;100351.47;;;0.79;98.30
72925;BME280;61070;50.794;7.054;2022-12-11T08:49:51;100349.53;;;0.69;98.00
72925;BME280;61070;50.794;7.054;2022-12-11T08:52:17;100356.38;;;0.65;97.21
72925;BME280;61070;50.794;7.054;2022-12-11T08:54:42;100360.88;;;0.71;97.64
72925;BME280;61070;50.794;7.054;2022-12-11T08:57:07;100366.28;;;0.80;97.46
72925;BME280;61070;50.794;7.054;2022-12-11T08:59:32;100362.59;;;0.70;98.23
72925;BME280;61070;50.794;7.054;2022-12-11T09:01:58;100367.81;;;0.70;98.63
72925;BME280;61070;50.794;7.054;2022-12-11T09:04:23;100367.78;;;0.69;98.09
72925;BME280;61070;50.794;7.054;2022-12-11T09:06:48;100366.09;;;0.71;96.42
72925;BME280;61070;50.794;7.054;2022-12-11T09:09:14;100356.59;;;0.74;96.67
72925;BME280;61070;50.794;7.054;2022-12-11T09:11:39;100355.69;;;0.72;96.19
72925;BME280;61070;50.794;7.054;2022-12-11T09:14:05;100358.25;;;0.71;95.98
72925;BME280;61070;50.794;7.054;2022-12-11T09:16:31;100361.75;;;0.71;95.09
72925;BME280;61070;50.794;7.054;2022-12-11T09:18:58;100354.06;;;0.77;95.39
72925;BME280;61070;50.794;7.054;2022-12-11T09:21:27;100356.81;;;0.83;95.04
72925;BME280;61070;50.794;7.054;2022-12-11T09:23:58;100358.56;;;0.84;95.24
72925;BME280;61070;50.794;7.054;2022-12-11T09:26:25;100357.75;;;0.87;95.36
72925;BME280;61070;50.794;7.054;2022-12-11T09:28:50;100354.41;;;0.93;95.49
72925;BME280;61070;50.794;7.054;2022-12-11T09:31:28;100358.72;;;0.92;95.27
72925;BME280;61070;50.794;7.054;2022-12-11T09:33:56;100353.56;;;0.94;95.24
72925;BME280;61070;50.794;7.054;2022-12-11T09:36:23;100365.94;;;1.04;94.75
72925;BME280;61070;50.794;7.054;2022-12-11T09:38:48;100364.72;;;0.88;94.45
72925;BME280;61070;50.794;7.054;2022-12-11T09:43:49;100358.91;;;1.01;94.32
72925;BME280;61070;50.794;7.054;2022-12-11T09:46:16;100363.78;;;0.84;94.60
72925;BME280;61070;50.794;7.054;2022-12-11T09:48:45;100361.28;;;0.91;94.36
72925;BME280;61070;50.794;7.054;2022-12-11T09:51:30;100356.34;;;1.03;93.73
72925;BME280;61070;50.794;7.054;2022-12-11T09:54:00;100361.50;;;1.01;93.68
72925;BME280;61070;50.794;7.054;2022-12-11T09:56:51;100365.84;;;1.01;93.71
72925;BME280;61070;50.794;7.054;2022-12-11T10:07:39;100353.81;;;1.06;91.63
72925;BME280;61070;50.794;7.054;2022-12-11T10:13:10;100350.03;;;0.92;92.52
72925;BME280;61070;50.794;7.054;2022-12-11T10:18:28;100340.59;;;0.98;92.00
72925;BME280;61070;50.794;7.054;2022-12-11T10:20:56;100337.25;;;1.04;90.71
72925;BME280;61070;50.794;7.054;2022-12-11T10:23:33;100336.25;;;0.99;91.93
72925;BME280;61070;50.794;7.054;2022-12-11T10:26:16;100341.81;;;1.14;91.57
72925;BME280;61070;50.794;7.054;2022-12-11T10:28:41;100331.50;;;1.22;91.20
72925;BME280;61070;50.794;7.054;2022-12-11T10:31:16;100332.59;;;1.33;90.25
72925;BME280;61070;50.794;7.054;2022-12-11T10:36:18;100324.19;;;1.48;90.18
72925;BME280;61070;50.794;7.054;2022-12-11T10:38:45;100315.47;;;1.47;89.57
72925;BME280;61070;50.794;7.054;2022-12-11T10:41:17;100316.50;;;1.57;89.77
72925;BME280;61070;50.794;7.054;2022-12-11T10:43:47;100313.84;;;1.54;89.74
72925;BME280;61070;50.794;7.054;2022-12-11T10:46:21;100304.19;;;1.48;89.54
72925;BME280;61070;50.794;7.054;2022-12-11T10:48:52;100307.81;;;1.56;89.24
72925;BME280;61070;50.794;7.054;2022-12-11T10:51:21;100301.59;;;1.48;90.23
72925;BME280;61070;50.794;7.054;2022-12-11T10:53:55;100293.91;;;1.57;89.27
72925;BME280;61070;50.794;7.054;2022-12-11T10:56:28;100297.38;;;1.56;90.29
72925;BME280;61070;50.794;7.054;2022-12-11T10:58:55;100295.63;;;1.57;88.78
72925;BME280;61070;50.794;7.054;2022-12-11T11:01:23;100299.94;;;1.53;89.85
72925;BME280;61070;50.794;7.054;2022-12-11T11:06:22;100295.59;;;1.54;88.14
72925;BME280;61070;50.794;7.054;2022-12-11T11:08:50;100292.13;;;1.56;87.98
72925;BME280;61070;50.794;7.054;2022-12-11T11:11:23;100288.75;;;1.60;87.50
72925;BME280;61070;50.794;7.054;2022-12-11T11:13:48;100293.03;;;1.57;87.36
72925;BME280;61070;50.794;7.054;2022-12-11T11:16:17;100279.41;;;1.74;87.12
72925;BME280;61070;50.794;7.054;2022-12-11T11:18:50;100277.78;;;1.81;86.19
72925;BME280;61070;50.794;7.054;2022-12-11T11:21:18;100277.47;;;1.63;86.51
72925;BME280;61070;50.794;7.054;2022-12-11T11:23:44;100273.75;;;1.49;87.44
72925;BME280;61070;50.794;7.054;2022-12-11T11:26:10;100273.72;;;1.47;87.17
72925;BME280;61070;50.794;7.054;2022-12-11T11:28:39;100265.13;;;1.53;87.64
72925;BME280;61070;50.794;7.054;2022-12-11T11:31:09;100266.63;;;1.40;87.77
72925;BME280;61070;50.794;7.054;2022-12-11T11:33:36;100257.25;;;1.50;88.08
72925;BME280;61070;50.794;7.054;2022-12-11T11:36:19;100266.03;;;1.55;86.93
72925;BME280;61070;50.794;7.054;2022-12-11T11:39:03;100253.28;;;1.73;86.63
72925;BME280;61070;50.794;7.054;2022-12-11T11:44:39;100253.81;;;1.54;86.36
72925;BME280;61070;50.794;7.054;2022-12-11T11:47:16;100256.63;;;1.64;86.54
72925;BME280;61070;50.794;7.054;2022-12-11T11:49:54;100257.69;;;1.77;85.21
72925;BME280;61070;50.794;7.054;2022-12-11T11:52:45;100260.41;;;1.83;84.47
72925;BME280;61070;50.794;7.054;2022-12-11T11:55:20;100251.88;;;1.93;84.93
72925;BME280;61070;50.794;7.054;2022-12-11T11:57:57;100243.00;;;1.82;84.71
72925;BME280;61070;50.794;7.054;2022-12-11T12:00:27;100251.94;;;1.98;84.76
72925;BME280;61070;50.794;7.054;2022-12-11T12:02:55;100252.09;;;2.09;83.98
72925;BME280;61070;50.794;7.054;2022-12-11T12:05:26;100257.31;;;2.09;83.46
72925;BME280;61070;50.794;7.054;2022-12-11T12:08:16;100255.53;;;2.04;83.89
72925;BME280;61070;50.794;7.054;2022-12-11T12:21:50;100267.59;;;1.98;83.24
72925;BME280;61070;50.794;7.054;2022-12-11T12:24:39;100259.66;;;1.90;84.20
72925;BME280;61070;50.794;7.054;2022-12-11T12:27:22;100262.38;;;1.98;83.35
72925;BME280;61070;50.794;7.054;2022-12-11T12:30:08;100257.13;;;1.95;83.71
72925;BME280;61070;50.794;7.054;2022-12-11T12:36:01;100256.31;;;2.00;83.56
72925;BME280;61070;50.794;7.054;2022-12-11T12:38:33;100256.47;;;2.10;82.88
72925;BME280;61070;50.794;7.054;2022-12-11T12:44:19;100236.78;;;2.34;82.46
72925;BME280;61070;50.794;7.054;2022-12-11T12:46:58;100238.34;;;2.20;81.75
72925;BME280;61070;50.794;7.054;2022-12-11T12:49:36;100234.88;;;2.21;81.41
72925;BME280;61070;50.794;7.054;2022-12-11T12:52:03;100233.84;;;2.12;82.77
72925;BME280;61070;50.794;7.054;2022-12-11T12:54:32;100234.72;;;2.12;80.95
72925;BME280;61070;50.794;7.054;2022-12-11T12:56:58;100234.66;;;2.04;81.35
72925;BME280;61070;50.794;7.054;2022-12-11T12:59:27;100235.56;;;2.08;82.22
72925;BME280;61070;50.794;7.054;2022-12-11T13:01:55;100234.84;;;2.20;81.37
72925;BME280;61070;50.794;7.054;2022-12-11T13:04:41;100233.84;;;2.12;81.78
72925;BME280;61070;50.794;7.054;2022-12-11T13:07:21;100227.94;;;2.25;80.85
72925;BME280;61070;50.794;7.054;2022-12-11T13:12:44;100228.66;;;2.15;82.31
72925;BME280;61070;50.794;7.054;2022-12-11T13:15:36;100229.66;;;2.23;82.46
72925;BME280;61070;50.794;7.054;2022-12-11T13:18:29;100220.97;;;2.25;83.34
72925;BME280;61070;50.794;7.054;2022-12-11T13:20:55;100227.75;;;2.10;83.50
72925;BME280;61070;50.794;7.054;2022-12-11T13:23:32;100227.84;;;2.17;83.30
72925;BME280;61070;50.794;7.054;2022-12-11T13:26:00;100220.78;;;2.10;83.54
72925;BME280;61070;50.794;7.054;2022-12-11T13:33:28;100232.56;;;1.84;83.74
72925;BME280;61070;50.794;7.054;2022-12-11T13:38:36;100228.03;;;1.72;83.63
72925;BME280;61070;50.794;7.054;2022-12-11T13:41:09;100229.00;;;1.80;83.96
72925;BME280;61070;50.794;7.054;2022-12-11T13:43:35;100232.38;;;1.71;83.92
72925;BME280;61070;50.794;7.054;2022-12-11T13:46:04;100236.66;;;1.68;84.18
72925;BME280;61070;50.794;7.054;2022-12-11T13:51:16;100235.94;;;1.78;84.35
72925;BME280;61070;50.794;7.054;2022-12-11T13:53:42;100232.28;;;1.67;84.32
72925;BME280;61070;50.794;7.054;2022-12-11T13:56:16;100230.56;;;1.67;84.54
72925;BME280;61070;50.794;7.054;2022-12-11T13:58:42;100240.25;;;1.74;84.46
72925;BME280;61070;50.794;7.054;2022-12-11T14:01:19;100246.19;;;1.64;84.67
72925;BME280;61070;50.794;7.054;2022-12-11T14:04:04;100243.59;;;1.67;84.78
72925;BME280;61070;50.794;7.054;2022-12-11T14:06:32;100246.31;;;1.72;84.02
72925;BME280;61070;50.794;7.054;2022-12-11T14:08:59;100242.69;;;1.64;84.58